sensor_id;sensor_type;location;lat;lon;timestamp;pressure;altitude;pressure_sealevel;temperature;humidity
22572;BME280;11452;53.368;14.658;2022-09-09T00:06:57;100440.54;;;17.70;85.91
22572;BME280;11452;53.368;14.658;2022-09-09T00:12:12;100447.92;;;17.68;85.86
22572;BME280;11452;53.368;14.658;2022-09-09T00:17:26;100441.85;;;17.60;85.53
22572;BME280;11452;53.368;14.658;2022-09-09T00:22:30;100442.34;;;17.59;85.75
22572;BME280;11452;53.368;14.658;2022-09-09T00:27:43;100441.48;;;17.59;85.76
22572;BME280;11452;53.368;14.658;2022-09-09T00:32:51;100437.16;;;17.62;86.00
22572;BME280;11452;53.368;14.658;2022-09-09T00:38:10;100439.01;;;17.61;85.73
22572;BME280;11452;53.368;14.658;2022-09-09T00:48:54;100450.59;;;17.58;85.77
22572;BME280;11452;53.368;14.658;2022-09-09T00:59:48;100460.23;;;17.51;85.63
22572;BME280;11452;53.368;14.658;2022-09-09T01:04:57;100460.00;;;17.48;85.59
22572;BME280;11452;53.368;14.658;2022-09-09T01:10:07;100463.43;;;17.50;86.02
22572;BME280;11452;53.368;14.658;2022-09-09T01:15:35;100467.98;;;17.50;85.58
22572;BME280;11452;53.368;14.658;2022-09-09T01:31:18;100473.50;;;17.39;85.49
22572;BME280;11452;53.368;14.658;2022-09-09T01:36:37;100484.08;;;17.36;85.75
22572;BME280;11452;53.368;14.658;2022-09-09T01:41:43;100485.03;;;17.41;85.80
22572;BME280;11452;53.368;14.658;2022-09-09T01:46:50;100484.53;;;17.41;85.91
22572;BME280;11452;53.368;14.658;2022-09-09T01:51:57;100492.91;;;17.38;85.57
22572;BME280;11452;53.368;14.658;2022-09-09T01:57:29;100489.84;;;17.37;85.49
22572;BME280;11452;53.368;14.658;2022-09-09T02:03:08;100489.02;;;17.31;85.37
22572;BME280;11452;53.368;14.658;2022-09-09T02:08:26;100490.28;;;17.27;85.65
22572;BME280;11452;53.368;14.658;2022-09-09T02:13:35;100490.70;;;17.22;85.61
22572;BME280;11452;53.368;14.658;2022-09-09T02:18:51;100497.72;;;17.19;85.75
22572;BME280;11452;53.368;14.658;2022-09-09T02:24:02;100488.89;;;17.17;85.74
22572;BME280;11452;53.368;14.658;2022-09-09T02:29:16;100487.71;;;17.10;85.75
22572;BME280;11452;53.368;14.658;2022-09-09T02:34:24;100482.44;;;17.09;85.84
22572;BME280;11452;53.368;14.658;2022-09-09T02:39:32;100490.48;;;17.05;86.22
22572;BME280;11452;53.368;14.658;2022-09-09T02:44:38;100494.53;;;17.05;86.35
22572;BME280;11452;53.368;14.658;2022-09-09T03:00:36;100502.83;;;17.07;87.25
22572;BME280;11452;53.368;14.658;2022-09-09T03:05:43;100508.20;;;17.13;87.36
22572;BME280;11452;53.368;14.658;2022-09-09T03:10:49;100513.53;;;17.24;87.72
22572;BME280;11452;53.368;14.658;2022-09-09T03:15:57;100509.65;;;17.32;87.47
22572;BME280;11452;53.368;14.658;2022-09-09T03:21:06;100515.28;;;17.35;87.37
22572;BME280;11452;53.368;14.658;2022-09-09T03:26:13;100517.72;;;17.38;87.43
22572;BME280;11452;53.368;14.658;2022-09-09T03:31:21;100521.27;;;17.38;87.01
22572;BME280;11452;53.368;14.658;2022-09-09T03:36:27;100516.99;;;17.36;86.76
22572;BME280;11452;53.368;14.658;2022-09-09T03:41:33;100514.30;;;17.36;86.81
22572;BME280;11452;53.368;14.658;2022-09-09T03:46:39;100516.73;;;17.39;87.07
22572;BME280;11452;53.368;14.658;2022-09-09T03:51:44;100520.65;;;17.40;86.92
22572;BME280;11452;53.368;14.658;2022-09-09T03:56:50;100517.84;;;17.36;86.48
22572;BME280;11452;53.368;14.658;2022-09-09T04:01:57;100521.80;;;17.32;86.40
22572;BME280;11452;53.368;14.658;2022-09-09T04:07:05;100522.80;;;17.31;86.29
22572;BME280;11452;53.368;14.658;2022-09-09T04:12:13;100525.56;;;17.25;86.25
22572;BME280;11452;53.368;14.658;2022-09-09T04:17:19;100527.30;;;17.21;86.07
22572;BME280;11452;53.368;14.658;2022-09-09T04:22:24;100528.55;;;17.17;86.02
22572;BME280;11452;53.368;14.658;2022-09-09T04:27:30;100529.70;;;17.09;86.05
22572;BME280;11452;53.368;14.658;2022-09-09T04:32:37;100532.70;;;17.06;85.96
22572;BME280;11452;53.368;14.658;2022-09-09T04:37:42;100535.30;;;17.02;86.18
22572;BME280;11452;53.368;14.658;2022-09-09T04:42:49;100529.53;;;17.01;86.26
22572;BME280;11452;53.368;14.658;2022-09-09T04:47:55;100533.38;;;16.92;86.63
22572;BME280;11452;53.368;14.658;2022-09-09T04:53:02;100545.11;;;17.03;87.20
22572;BME280;11452;53.368;14.658;2022-09-09T04:58:10;100540.38;;;17.10;87.05
22572;BME280;11452;53.368;14.658;2022-09-09T05:03:16;100541.95;;;17.13;87.47
22572;BME280;11452;53.368;14.658;2022-09-09T05:08:22;100545.63;;;18.03;83.71
22572;BME280;11452;53.368;14.658;2022-09-09T05:13:29;100543.88;;;17.52;86.08
22572;BME280;11452;53.368;14.658;2022-09-09T05:18:42;100549.38;;;17.41;86.51
22572;BME280;11452;53.368;14.658;2022-09-09T05:23:45;100550.87;;;17.40;86.96
22572;BME280;11452;53.368;14.658;2022-09-09T05:28:51;100549.75;;;17.42;87.51
22572;BME280;11452;53.368;14.658;2022-09-09T05:33:58;100565.76;;;17.49;87.53
22572;BME280;11452;53.368;14.658;2022-09-09T05:39:03;100567.94;;;17.55;87.81
22572;BME280;11452;53.368;14.658;2022-09-09T05:44:10;100585.50;;;17.55;87.69
22572;BME280;11452;53.368;14.658;2022-09-09T05:49:16;100580.61;;;17.70;88.50
22572;BME280;11452;53.368;14.658;2022-09-09T05:54:23;100579.09;;;17.77;87.70
22572;BME280;11452;53.368;14.658;2022-09-09T05:59:30;100572.28;;;17.68;86.92
22572;BME280;11452;53.368;14.658;2022-09-09T06:04:36;100580.42;;;17.62;87.80
22572;BME280;11452;53.368;14.658;2022-09-09T06:09:43;100584.80;;;17.69;87.75
22572;BME280;11452;53.368;14.658;2022-09-09T06:14:49;100588.95;;;17.73;87.84
22572;BME280;11452;53.368;14.658;2022-09-09T06:19:56;100589.19;;;17.75;87.74
22572;BME280;11452;53.368;14.658;2022-09-09T06:25:03;100589.30;;;17.89;87.67
22572;BME280;11452;53.368;14.658;2022-09-09T06:30:09;100601.51;;;17.83;87.55
22572;BME280;11452;53.368;14.658;2022-09-09T06:35:15;100610.66;;;17.92;87.24
22572;BME280;11452;53.368;14.658;2022-09-09T06:40:21;100610.70;;;17.86;86.81
22572;BME280;11452;53.368;14.658;2022-09-09T06:45:27;100615.67;;;17.96;87.43
22572;BME280;11452;53.368;14.658;2022-09-09T06:50:34;100618.80;;;18.02;86.56
22572;BME280;11452;53.368;14.658;2022-09-09T06:55:40;100625.42;;;18.03;86.36
22572;BME280;11452;53.368;14.658;2022-09-09T07:00:48;100618.03;;;18.05;86.79
22572;BME280;11452;53.368;14.658;2022-09-09T07:05:55;100627.97;;;18.20;86.78
22572;BME280;11452;53.368;14.658;2022-09-09T07:11:04;100628.95;;;18.34;86.89
22572;BME280;11452;53.368;14.658;2022-09-09T07:16:15;100619.84;;;18.35;85.96
22572;BME280;11452;53.368;14.658;2022-09-09T07:21:20;100624.77;;;18.36;86.03
22572;BME280;11452;53.368;14.658;2022-09-09T07:26:29;100624.86;;;18.49;86.30
22572;BME280;11452;53.368;14.658;2022-09-09T07:31:38;100632.31;;;18.76;86.38
22572;BME280;11452;53.368;14.658;2022-09-09T07:36:46;100628.62;;;18.87;85.55
22572;BME280;11452;53.368;14.658;2022-09-09T07:41:53;100641.44;;;18.94;85.86
22572;BME280;11452;53.368;14.658;2022-09-09T07:46:59;100646.14;;;19.12;85.60
22572;BME280;11452;53.368;14.658;2022-09-09T07:52:06;100644.88;;;19.25;84.90
22572;BME280;11452;53.368;14.658;2022-09-09T07:57:14;100645.41;;;19.38;84.44
22572;BME280;11452;53.368;14.658;2022-09-09T08:02:24;100649.91;;;19.44;83.79
22572;BME280;11452;53.368;14.658;2022-09-09T08:07:34;100652.91;;;19.60;83.90
22572;BME280;11452;53.368;14.658;2022-09-09T08:12:40;100659.28;;;19.68;82.37
22572;BME280;11452;53.368;14.658;2022-09-09T08:17:47;100657.44;;;19.92;83.11
22572;BME280;11452;53.368;14.658;2022-09-09T08:22:54;100659.41;;;20.00;82.35
22572;BME280;11452;53.368;14.658;2022-09-09T08:28:00;100665.47;;;20.21;81.73
22572;BME280;11452;53.368;14.658;2022-09-09T08:33:06;100651.92;;;20.25;81.01
22572;BME280;11452;53.368;14.658;2022-09-09T08:38:14;100651.27;;;20.37;80.33
22572;BME280;11452;53.368;14.658;2022-09-09T08:43:22;100662.16;;;20.41;79.40
22572;BME280;11452;53.368;14.658;2022-09-09T08:48:52;100663.23;;;20.58;79.77
22572;BME280;11452;53.368;14.658;2022-09-09T08:53:57;100666.12;;;20.74;78.38
22572;BME280;11452;53.368;14.658;2022-09-09T08:59:05;100656.58;;;20.43;76.81
22572;BME280;11452;53.368;14.658;2022-09-09T09:15:29;100669.70;;;20.92;77.64
22572;BME280;11452;53.368;14.658;2022-09-09T09:20:40;100668.10;;;21.03;75.97
22572;BME280;11452;53.368;14.658;2022-09-09T09:25:44;100660.25;;;21.00;75.76
22572;BME280;11452;53.368;14.658;2022-09-09T09:31:03;100662.09;;;21.14;75.53
22572;BME280;11452;53.368;14.658;2022-09-09T09:36:08;100664.20;;;21.20;75.57
22572;BME280;11452;53.368;14.658;2022-09-09T09:41:15;100668.14;;;21.43;75.18
22572;BME280;11452;53.368;14.658;2022-09-09T09:46:25;100677.39;;;21.50;74.94
22572;BME280;11452;53.368;14.658;2022-09-09T09:51:34;100669.62;;;21.59;74.09
22572;BME280;11452;53.368;14.658;2022-09-09T09:56:41;100670.94;;;21.77;74.40
22572;BME280;11452;53.368;14.658;2022-09-09T10:01:48;100676.09;;;21.84;72.65
22572;BME280;11452;53.368;14.658;2022-09-09T10:06:54;100677.92;;;21.80;72.54
22572;BME280;11452;53.368;14.658;2022-09-09T10:12:18;100677.83;;;21.93;72.94
22572;BME280;11452;53.368;14.658;2022-09-09T10:22:51;100677.61;;;22.04;72.00
22572;BME280;11452;53.368;14.658;2022-09-09T10:33:50;100677.68;;;22.67;72.16
22572;BME280;11452;53.368;14.658;2022-09-09T10:39:04;100676.91;;;22.87;70.97
22572;BME280;11452;53.368;14.658;2022-09-09T10:44:26;100678.98;;;23.05;70.55
22572;BME280;11452;53.368;14.658;2022-09-09T10:55:18;100694.87;;;23.18;69.22
22572;BME280;11452;53.368;14.658;2022-09-09T11:00:30;100692.16;;;23.50;68.36
22572;BME280;11452;53.368;14.658;2022-09-09T11:05:44;100694.92;;;23.54;66.38
22572;BME280;11452;53.368;14.658;2022-09-09T11:16:41;100693.70;;;23.69;65.71
22572;BME280;11452;53.368;14.658;2022-09-09T11:21:49;100690.09;;;23.93;64.56
22572;BME280;11452;53.368;14.658;2022-09-09T11:26:59;100688.34;;;24.04;64.37
22572;BME280;11452;53.368;14.658;2022-09-09T11:32:10;100693.59;;;24.13;63.51
22572;BME280;11452;53.368;14.658;2022-09-09T11:42:42;100691.01;;;24.32;62.97
22572;BME280;11452;53.368;14.658;2022-09-09T11:47:55;100687.83;;;24.60;61.77
22572;BME280;11452;53.368;14.658;2022-09-09T11:53:19;100685.50;;;24.79;60.92
22572;BME280;11452;53.368;14.658;2022-09-09T11:58:28;100690.73;;;24.89;60.44
22572;BME280;11452;53.368;14.658;2022-09-09T12:08:53;100688.51;;;24.62;59.10
22572;BME280;11452;53.368;14.658;2022-09-09T12:14:01;100684.43;;;24.54;58.74
22572;BME280;11452;53.368;14.658;2022-09-09T12:19:15;100687.99;;;24.62;59.26
22572;BME280;11452;53.368;14.658;2022-09-09T12:24:35;100676.38;;;24.95;59.48
22572;BME280;11452;53.368;14.658;2022-09-09T12:29:54;100675.44;;;25.30;58.60
22572;BME280;11452;53.368;14.658;2022-09-09T12:35:19;100673.77;;;25.43;57.70
22572;BME280;11452;53.368;14.658;2022-09-09T12:40:28;100670.13;;;25.51;57.41
22572;BME280;11452;53.368;14.658;2022-09-09T12:45:34;100669.78;;;25.50;55.96
22572;BME280;11452;53.368;14.658;2022-09-09T12:50:48;100673.36;;;25.32;55.31
22572;BME280;11452;53.368;14.658;2022-09-09T12:55:57;100671.95;;;25.17;55.35
22572;BME280;11452;53.368;14.658;2022-09-09T13:01:04;100675.58;;;25.09;55.04
22572;BME280;11452;53.368;14.658;2022-09-09T13:06:13;100676.02;;;24.98;55.06
22572;BME280;11452;53.368;14.658;2022-09-09T13:11:29;100673.63;;;24.91;55.34
22572;BME280;11452;53.368;14.658;2022-09-09T13:16:35;100668.39;;;24.85;55.73
22572;BME280;11452;53.368;14.658;2022-09-09T13:21:43;100661.16;;;26.09;54.81
22572;BME280;11452;53.368;14.658;2022-09-09T13:27:02;100658.29;;;25.54;56.67
22572;BME280;11452;53.368;14.658;2022-09-09T13:32:15;100654.06;;;25.48;56.58
22572;BME280;11452;53.368;14.658;2022-09-09T13:37:33;100644.27;;;25.35;56.80
22572;BME280;11452;53.368;14.658;2022-09-09T13:42:37;100648.50;;;25.41;56.90
22572;BME280;11452;53.368;14.658;2022-09-09T13:47:42;100644.94;;;25.37;56.67
22572;BME280;11452;53.368;14.658;2022-09-09T13:52:51;100641.83;;;25.21;56.28
22572;BME280;11452;53.368;14.658;2022-09-09T13:58:00;100633.53;;;25.29;55.57
22572;BME280;11452;53.368;14.658;2022-09-09T14:03:05;100640.01;;;25.51;56.33
22572;BME280;11452;53.368;14.658;2022-09-09T14:08:22;100631.17;;;25.64;55.39
22572;BME280;11452;53.368;14.658;2022-09-09T14:13:24;100630.92;;;25.73;55.37
22572;BME280;11452;53.368;14.658;2022-09-09T14:18:29;100626.38;;;25.66;54.60
22572;BME280;11452;53.368;14.658;2022-09-09T14:23:35;100628.33;;;25.57;54.08
22572;BME280;11452;53.368;14.658;2022-09-09T14:28:42;100619.94;;;25.40;53.86
22572;BME280;11452;53.368;14.658;2022-09-09T14:33:50;100623.25;;;25.31;54.41
22572;BME280;11452;53.368;14.658;2022-09-09T14:38:56;100620.97;;;25.39;54.12
22572;BME280;11452;53.368;14.658;2022-09-09T14:44:03;100617.98;;;25.26;54.02
22572;BME280;11452;53.368;14.658;2022-09-09T14:49:08;100619.02;;;25.25;54.27
22572;BME280;11452;53.368;14.658;2022-09-09T14:54:15;100613.55;;;25.25;54.50
22572;BME280;11452;53.368;14.658;2022-09-09T14:59:21;100621.73;;;25.29;54.17
22572;BME280;11452;53.368;14.658;2022-09-09T15:04:26;100619.11;;;25.16;54.83
22572;BME280;11452;53.368;14.658;2022-09-09T15:09:31;100614.65;;;25.38;54.92
22572;BME280;11452;53.368;14.658;2022-09-09T15:14:37;100618.08;;;25.55;55.13
22572;BME280;11452;53.368;14.658;2022-09-09T15:19:42;100615.90;;;25.69;53.99
22572;BME280;11452;53.368;14.658;2022-09-09T15:24:48;100620.26;;;25.60;53.03
22572;BME280;11452;53.368;14.658;2022-09-09T15:29:53;100621.52;;;25.53;53.42
22572;BME280;11452;53.368;14.658;2022-09-09T15:34:59;100619.05;;;25.62;53.27
22572;BME280;11452;53.368;14.658;2022-09-09T15:40:06;100624.37;;;25.60;52.91
22572;BME280;11452;53.368;14.658;2022-09-09T15:45:12;100630.73;;;25.56;52.44
22572;BME280;11452;53.368;14.658;2022-09-09T15:50:19;100626.69;;;25.48;52.31
22572;BME280;11452;53.368;14.658;2022-09-09T15:55:25;100630.09;;;25.31;52.26
22572;BME280;11452;53.368;14.658;2022-09-09T16:00:30;100624.50;;;25.25;52.52
22572;BME280;11452;53.368;14.658;2022-09-09T16:05:37;100613.82;;;25.15;52.68
22572;BME280;11452;53.368;14.658;2022-09-09T16:10:43;100615.76;;;25.06;52.85
22572;BME280;11452;53.368;14.658;2022-09-09T16:15:54;100608.48;;;24.99;53.12
22572;BME280;11452;53.368;14.658;2022-09-09T16:20:59;100597.92;;;24.88;53.28
22572;BME280;11452;53.368;14.658;2022-09-09T16:26:05;100606.60;;;24.68;53.69
22572;BME280;11452;53.368;14.658;2022-09-09T16:31:21;100609.42;;;24.56;54.22
22572;BME280;11452;53.368;14.658;2022-09-09T16:36:24;100613.11;;;24.40;54.73
22572;BME280;11452;53.368;14.658;2022-09-09T16:41:31;100617.45;;;24.18;55.37
22572;BME280;11452;53.368;14.658;2022-09-09T16:46:40;100619.91;;;23.97;56.00
22572;BME280;11452;53.368;14.658;2022-09-09T16:51:48;100619.84;;;23.74;56.53
22572;BME280;11452;53.368;14.658;2022-09-09T16:56:56;100638.26;;;23.48;57.24
22572;BME280;11452;53.368;14.658;2022-09-09T17:02:02;100635.70;;;23.22;57.98
22572;BME280;11452;53.368;14.658;2022-09-09T17:07:09;100636.41;;;23.00;58.53
22572;BME280;11452;53.368;14.658;2022-09-09T17:12:15;100637.39;;;22.78;59.23
22572;BME280;11452;53.368;14.658;2022-09-09T17:17:20;100634.42;;;22.60;59.82
22572;BME280;11452;53.368;14.658;2022-09-09T17:22:27;100630.27;;;22.39;60.39
22572;BME280;11452;53.368;14.658;2022-09-09T17:27:33;100641.09;;;22.19;60.91
22572;BME280;11452;53.368;14.658;2022-09-09T17:32:38;100632.79;;;21.99;61.46
22572;BME280;11452;53.368;14.658;2022-09-09T17:37:44;100627.77;;;21.82;61.94
22572;BME280;11452;53.368;14.658;2022-09-09T17:42:50;100628.00;;;21.63;62.42
22572;BME280;11452;53.368;14.658;2022-09-09T17:47:55;100623.30;;;21.47;62.90
22572;BME280;11452;53.368;14.658;2022-09-09T17:53:01;100619.27;;;21.29;63.44
22572;BME280;11452;53.368;14.658;2022-09-09T17:58:07;100609.09;;;21.18;63.93
22572;BME280;11452;53.368;14.658;2022-09-09T18:03:13;100603.53;;;21.01;64.33
22572;BME280;11452;53.368;14.658;2022-09-09T18:08:18;100609.52;;;20.87;64.81
22572;BME280;11452;53.368;14.658;2022-09-09T18:13:24;100606.45;;;20.68;65.28
22572;BME280;11452;53.368;14.658;2022-09-09T18:18:29;100613.13;;;20.56;65.76
22572;BME280;11452;53.368;14.658;2022-09-09T18:23:37;100614.19;;;20.46;66.27
22572;BME280;11452;53.368;14.658;2022-09-09T18:28:48;100623.68;;;20.32;66.66
22572;BME280;11452;53.368;14.658;2022-09-09T18:33:56;100622.21;;;20.24;67.04
22572;BME280;11452;53.368;14.658;2022-09-09T18:39:04;100622.63;;;20.15;67.49
22572;BME280;11452;53.368;14.658;2022-09-09T18:44:13;100633.84;;;20.02;67.85
22572;BME280;11452;53.368;14.658;2022-09-09T18:49:22;100626.59;;;19.93;68.27
22572;BME280;11452;53.368;14.658;2022-09-09T18:54:29;100633.78;;;19.85;68.74
22572;BME280;11452;53.368;14.658;2022-09-09T18:59:37;100637.36;;;19.76;69.02
22572;BME280;11452;53.368;14.658;2022-09-09T19:04:43;100653.68;;;19.66;69.46
22572;BME280;11452;53.368;14.658;2022-09-09T19:09:48;100653.75;;;19.60;69.87
22572;BME280;11452;53.368;14.658;2022-09-09T19:14:54;100671.59;;;19.53;70.07
22572;BME280;11452;53.368;14.658;2022-09-09T19:20:01;100675.02;;;19.46;70.49
22572;BME280;11452;53.368;14.658;2022-09-09T19:25:08;100671.02;;;19.40;70.87
22572;BME280;11452;53.368;14.658;2022-09-09T19:30:16;100678.73;;;19.35;71.18
22572;BME280;11452;53.368;14.658;2022-09-09T19:35:22;100684.53;;;19.26;71.58
22572;BME280;11452;53.368;14.658;2022-09-09T19:40:27;100681.95;;;19.25;72.11
22572;BME280;11452;53.368;14.658;2022-09-09T19:45:33;100689.02;;;19.22;72.34
22572;BME280;11452;53.368;14.658;2022-09-09T19:50:39;100686.30;;;19.22;72.74
22572;BME280;11452;53.368;14.658;2022-09-09T19:55:44;100682.23;;;19.22;73.00
22572;BME280;11452;53.368;14.658;2022-09-09T20:00:51;100680.74;;;19.23;73.19
22572;BME280;11452;53.368;14.658;2022-09-09T20:05:57;100677.31;;;19.21;73.36
22572;BME280;11452;53.368;14.658;2022-09-09T20:11:03;100672.04;;;19.20;73.68
22572;BME280;11452;53.368;14.658;2022-09-09T20:16:11;100668.19;;;19.22;73.96
22572;BME280;11452;53.368;14.658;2022-09-09T20:21:24;100667.69;;;19.23;74.15
22572;BME280;11452;53.368;14.658;2022-09-09T20:26:29;100662.62;;;19.24;74.27
22572;BME280;11452;53.368;14.658;2022-09-09T20:31:38;100658.78;;;19.26;74.28
22572;BME280;11452;53.368;14.658;2022-09-09T20:36:46;100656.35;;;19.23;73.92
22572;BME280;11452;53.368;14.658;2022-09-09T20:41:54;100658.63;;;19.18;73.82
22572;BME280;11452;53.368;14.658;2022-09-09T20:47:00;100659.69;;;19.12;73.90
22572;BME280;11452;53.368;14.658;2022-09-09T20:52:07;100654.86;;;19.06;74.10
22572;BME280;11452;53.368;14.658;2022-09-09T20:57:15;100648.38;;;19.02;74.33
22572;BME280;11452;53.368;14.658;2022-09-09T21:02:22;100636.18;;;19.02;74.30
22572;BME280;11452;53.368;14.658;2022-09-09T21:07:28;100633.67;;;18.95;74.35
22572;BME280;11452;53.368;14.658;2022-09-09T21:12:34;100633.77;;;18.90;74.52
22572;BME280;11452;53.368;14.658;2022-09-09T21:17:39;100637.53;;;18.83;74.68
22572;BME280;11452;53.368;14.658;2022-09-09T21:22:45;100638.95;;;18.78;74.86
22572;BME280;11452;53.368;14.658;2022-09-09T21:27:50;100636.46;;;18.71;75.24
22572;BME280;11452;53.368;14.658;2022-09-09T21:32:56;100630.41;;;18.73;75.79
22572;BME280;11452;53.368;14.658;2022-09-09T21:38:01;100631.53;;;18.80;75.96
22572;BME280;11452;53.368;14.658;2022-09-09T21:43:08;100628.55;;;18.83;75.70
22572;BME280;11452;53.368;14.658;2022-09-09T21:48:16;100626.42;;;18.86;75.73
22572;BME280;11452;53.368;14.658;2022-09-09T21:53:22;100638.11;;;18.87;75.53
22572;BME280;11452;53.368;14.658;2022-09-09T21:58:28;100642.89;;;18.89;75.46
22572;BME280;11452;53.368;14.658;2022-09-09T22:03:42;100644.24;;;18.89;75.52
22572;BME280;11452;53.368;14.658;2022-09-09T22:08:43;100658.64;;;18.89;75.13
22572;BME280;11452;53.368;14.658;2022-09-09T22:13:49;100670.94;;;18.78;75.19
22572;BME280;11452;53.368;14.658;2022-09-09T22:18:58;100677.36;;;18.77;75.58
22572;BME280;11452;53.368;14.658;2022-09-09T22:24:04;100682.14;;;18.70;75.13
22572;BME280;11452;53.368;14.658;2022-09-09T22:29:12;100684.89;;;18.64;75.69
22572;BME280;11452;53.368;14.658;2022-09-09T22:34:17;100688.88;;;18.60;75.77
22572;BME280;11452;53.368;14.658;2022-09-09T22:39:24;100697.98;;;18.59;75.89
22572;BME280;11452;53.368;14.658;2022-09-09T22:44:29;100702.09;;;18.53;76.09
22572;BME280;11452;53.368;14.658;2022-09-09T22:49:36;100697.31;;;18.51;76.43
22572;BME280;11452;53.368;14.658;2022-09-09T22:54:41;100700.16;;;18.50;76.36
22572;BME280;11452;53.368;14.658;2022-09-09T22:59:48;100700.42;;;18.47;76.33
22572;BME280;11452;53.368;14.658;2022-09-09T23:04:54;100695.86;;;18.47;76.27
22572;BME280;11452;53.368;14.658;2022-09-09T23:10:03;100698.21;;;18.46;76.17
22572;BME280;11452;53.368;14.658;2022-09-09T23:15:09;100691.72;;;18.43;75.89
22572;BME280;11452;53.368;14.658;2022-09-09T23:20:15;100688.42;;;18.40;75.84
22572;BME280;11452;53.368;14.658;2022-09-09T23:25:22;100684.72;;;18.41;75.62
22572;BME280;11452;53.368;14.658;2022-09-09T23:30:28;100683.64;;;18.38;75.34
22572;BME280;11452;53.368;14.658;2022-09-09T23:35:34;100679.43;;;18.29;75.26
22572;BME280;11452;53.368;14.658;2022-09-09T23:40:40;100680.69;;;18.25;75.21
22572;BME280;11452;53.368;14.658;2022-09-09T23:45:47;100664.86;;;18.21;75.20
22572;BME280;11452;53.368;14.658;2022-09-09T23:50:53;100658.08;;;18.11;75.20
22572;BME280;11452;53.368;14.658;2022-09-09T23:55:59;100655.67;;;18.03;75.38
